Cravat, Illinois
Current Conditions -  °F | °C
As of 8:15 AM on Friday 19 Dec 2014 (Local Time) from KENL Reporting Station
Haze Haze  
Wind Chill: 24°   Ceiling: 3900
Heat Index: 30°   Visibility: 5mi
Dew Point: 25°   Wind: 6mph
Humidity: 80%   Direction: 100°E
Pressure: 30.33"   Gusts: NA
Location:  38.5134°N, 89.1673°W
Report Text: KENL 191415Z AUTO 10005KT 5SM HZ BKN039 M01/M04 A3033 RMK AO2 T10101041
Loading
Personal Weather Stations






























Interactive Weather Map New forecast layout! Learn more

10-Day Weather Forecast

Advertisements
Track Severe Weather on mobile